createdAt,value
2019-05-14T00:00:26.961Z,6.80
2019-05-14T00:02:21.486Z,6.80
2019-05-14T00:04:13.498Z,6.90
2019-05-14T00:06:05.908Z,6.90
2019-05-14T00:07:58.218Z,6.90
2019-05-14T00:09:51.988Z,6.80
2019-05-14T00:11:44.455Z,6.80
2019-05-14T00:13:36.862Z,6.70
2019-05-14T00:15:29.054Z,6.70
2019-05-14T00:17:21.695Z,6.60
2019-05-14T00:19:13.579Z,6.60
2019-05-14T00:21:06.034Z,6.60
2019-05-14T00:22:57.939Z,6.50
2019-05-14T00:24:52.061Z,6.60
2019-05-14T00:26:45.137Z,6.50
2019-05-14T00:28:37.555Z,6.50
2019-05-14T00:30:31.740Z,6.50
2019-05-14T00:32:23.678Z,6.40
2019-05-14T00:34:16.024Z,6.40
2019-05-14T00:36:08.584Z,6.30
2019-05-14T00:38:01.360Z,6.30
2019-05-14T00:39:54.503Z,6.20
2019-05-14T00:41:46.331Z,6.30
2019-05-14T00:43:38.453Z,6.20
2019-05-14T00:45:31.302Z,6.10
2019-05-14T00:47:24.543Z,6.10
2019-05-14T00:49:16.485Z,6.10
2019-05-14T00:51:08.413Z,6.10
2019-05-14T00:53:01.904Z,6.10
2019-05-14T00:54:54.868Z,6.10
2019-05-14T00:56:47.171Z,6.10
2019-05-14T00:58:41.496Z,6.10
2019-05-14T01:00:33.443Z,6.10
2019-05-14T01:02:26.200Z,6.10
2019-05-14T01:04:18.560Z,6.00
2019-05-14T01:06:11.404Z,6.00
2019-05-14T01:08:04.068Z,6.00
2019-05-14T01:09:56.109Z,6.00
2019-05-14T01:11:48.403Z,5.90
2019-05-14T01:13:41.716Z,5.90
2019-05-14T01:15:34.023Z,5.80
2019-05-14T01:17:26.066Z,5.80
2019-05-14T01:19:18.335Z,5.80
2019-05-14T01:21:11.665Z,5.80
2019-05-14T01:23:05.662Z,5.80
2019-05-14T01:24:58.261Z,5.80
2019-05-14T01:26:52.092Z,5.90
2019-05-14T01:28:44.577Z,5.90
2019-05-14T01:30:36.886Z,6.00
2019-05-14T01:32:31.418Z,6.00
2019-05-14T01:34:23.407Z,5.90
2019-05-14T01:36:15.884Z,5.80
2019-05-14T01:38:07.804Z,5.90
2019-05-14T01:40:01.148Z,5.80
2019-05-14T01:41:53.824Z,5.80
2019-05-14T01:43:46.464Z,5.80
2019-05-14T01:45:38.661Z,5.80
2019-05-14T01:47:31.891Z,5.90
2019-05-14T01:49:24.116Z,6.00
2019-05-14T01:51:16.241Z,6.00
2019-05-14T01:53:08.157Z,6.00
2019-05-14T01:55:02.153Z,6.10
2019-05-14T01:56:55.008Z,6.10
2019-05-14T01:58:47.087Z,6.10
2019-05-14T02:00:41.480Z,6.10
2019-05-14T02:02:33.458Z,6.20
2019-05-14T02:04:25.652Z,6.20
2019-05-14T02:06:18.217Z,6.30
2019-05-14T02:08:12.177Z,6.30
2019-05-14T02:10:07.705Z,6.40
2019-05-14T02:12:02.062Z,6.40
2019-05-14T02:13:54.335Z,6.40
2019-05-14T02:15:46.700Z,6.40
2019-05-14T02:17:41.396Z,6.40
2019-05-14T02:19:33.460Z,6.50
2019-05-14T02:21:26.157Z,6.50
2019-05-14T02:23:18.613Z,6.50
2019-05-14T02:25:11.634Z,6.40
2019-05-14T02:27:04.114Z,6.40
2019-05-14T02:28:56.636Z,6.40
2019-05-14T02:30:57.677Z,6.40
2019-05-14T02:32:43.202Z,6.40
2019-05-14T02:34:39.451Z,6.30
2019-05-14T02:36:30.932Z,6.30
2019-05-14T02:38:24.561Z,6.30
2019-05-14T02:40:19.889Z,6.20
2019-05-14T02:42:10.347Z,6.10
2019-05-14T02:44:03.079Z,6.00
2019-05-14T02:46:09.094Z,6.10
2019-05-14T02:47:50.293Z,6.10
2019-05-14T02:49:42.600Z,6.00
2019-05-14T02:51:35.167Z,6.00
2019-05-14T02:53:29.640Z,6.00
2019-05-14T02:55:21.097Z,5.90
2019-05-14T02:57:12.977Z,5.90
2019-05-14T02:59:06.014Z,5.90
2019-05-14T03:01:00.392Z,5.90
2019-05-14T03:02:53.442Z,5.80
2019-05-14T03:04:45.439Z,5.80
2019-05-14T03:06:39.483Z,5.80
2019-05-14T03:08:31.896Z,5.80
2019-05-14T03:10:24.709Z,5.80
2019-05-14T03:12:19.369Z,5.70
2019-05-14T03:14:10.765Z,5.70
2019-05-14T03:16:20.704Z,5.70
2019-05-14T03:18:00.017Z,5.60
2019-05-14T03:19:51.715Z,5.60
2019-05-14T03:21:44.215Z,5.70
2019-05-14T03:23:39.133Z,5.70
2019-05-14T03:25:30.512Z,5.70
2019-05-14T03:27:22.848Z,5.60
2019-05-14T03:29:15.105Z,5.70
2019-05-14T03:31:12.147Z,5.70
2019-05-14T03:33:02.962Z,5.70
2019-05-14T03:34:55.267Z,5.70
2019-05-14T03:36:52.860Z,5.60
2019-05-14T03:38:40.980Z,5.60
2019-05-14T03:40:33.438Z,5.60
2019-05-14T03:42:29.976Z,5.60
2019-05-14T03:44:22.382Z,5.60
2019-05-14T03:46:15.257Z,5.60
2019-05-14T03:48:31.423Z,5.50
2019-05-14T03:50:29.838Z,5.60
2019-05-14T03:52:42.248Z,5.60
2019-05-14T03:54:40.863Z,5.50
2019-05-14T03:56:35.105Z,5.30
2019-05-14T03:58:30.204Z,5.40
2019-05-14T04:00:23.176Z,5.40
2019-05-14T04:02:19.581Z,5.40
2019-05-14T04:04:10.349Z,5.30
2019-05-14T04:06:04.021Z,5.30
2019-05-14T04:07:56.434Z,5.30
2019-05-14T04:09:51.244Z,5.30
2019-05-14T04:11:44.927Z,5.40
2019-05-14T04:13:40.526Z,5.40
2019-05-14T04:15:33.945Z,5.40
2019-05-14T04:17:33.626Z,5.40
2019-05-14T04:19:22.579Z,5.40
2019-05-14T04:21:20.202Z,5.40
2019-05-14T04:23:11.421Z,5.40
2019-05-14T04:25:05.265Z,5.40
2019-05-14T04:27:07.292Z,5.30
2019-05-14T04:28:54.969Z,5.30
2019-05-14T04:30:49.434Z,5.40
2019-05-14T04:32:42.645Z,5.40
2019-05-14T04:34:35.347Z,5.40
2019-05-14T04:36:30.037Z,5.60
2019-05-14T04:38:21.934Z,5.60
2019-05-14T04:40:14.526Z,5.50
2019-05-14T04:42:09.270Z,5.60
2019-05-14T04:44:00.434Z,5.60
2019-05-14T04:45:52.868Z,5.70
2019-05-14T04:47:45.486Z,5.80
2019-05-14T04:49:39.815Z,5.80
2019-05-14T04:51:32.417Z,5.80
2019-05-14T04:53:24.358Z,5.80
2019-05-14T04:55:16.740Z,5.90
2019-05-14T04:57:10.175Z,5.90
2019-05-14T04:59:04.348Z,6.00
2019-05-14T05:00:56.379Z,6.00
2019-05-14T05:02:49.934Z,6.10
2019-05-14T05:04:42.656Z,6.10
2019-05-14T05:06:35.429Z,6.20
2019-05-14T05:08:30.379Z,6.30
2019-05-14T05:10:21.976Z,6.40
2019-05-14T05:12:14.525Z,6.40
2019-05-14T05:14:08.813Z,6.40
2019-05-14T05:16:01.360Z,6.50
2019-05-14T05:17:53.724Z,6.60
2019-05-14T05:19:46.287Z,6.70
2019-05-14T05:21:39.041Z,6.80
2019-05-14T05:23:31.116Z,6.80
2019-05-14T05:25:23.204Z,6.80
2019-05-14T05:27:15.384Z,6.80
2019-05-14T05:29:10.450Z,6.90
2019-05-14T05:31:04.338Z,7.10
2019-05-14T05:32:59.515Z,7.10
2019-05-14T05:34:51.033Z,7.10
2019-05-14T05:36:43.232Z,7.20
2019-05-14T05:38:35.158Z,7.20
2019-05-14T05:40:28.776Z,7.20
2019-05-14T05:42:21.138Z,7.40
2019-05-14T05:44:13.372Z,7.50
2019-05-14T05:46:05.483Z,7.50
2019-05-14T05:48:01.432Z,7.60
2019-05-14T05:49:51.517Z,7.60
2019-05-14T05:51:43.872Z,7.60
2019-05-14T05:53:39.012Z,7.70
2019-05-14T05:55:30.187Z,7.80
2019-05-14T05:57:22.686Z,7.90
2019-05-14T05:59:14.918Z,8.00
2019-05-14T06:01:09.690Z,8.00
2019-05-14T06:03:01.478Z,8.00
2019-05-14T06:04:53.971Z,8.00
2019-05-14T06:06:48.206Z,8.00
2019-05-14T06:08:42.151Z,8.20
2019-05-14T06:10:34.630Z,8.20
2019-05-14T06:12:29.474Z,8.20
2019-05-14T06:14:21.557Z,8.20
2019-05-14T06:16:14.128Z,8.40
2019-05-14T06:18:15.242Z,8.40
2019-05-14T06:20:00.391Z,8.90
2019-05-14T06:21:52.811Z,9.10
2019-05-14T06:23:44.697Z,9.30
2019-05-14T06:25:39.766Z,9.40
2019-05-14T06:27:30.630Z,9.30
2019-05-14T06:29:24.433Z,9.00
2019-05-14T06:31:18.965Z,9.40
2019-05-14T06:33:12.668Z,9.50
2019-05-14T06:35:08.768Z,9.50
2019-05-14T06:37:00.472Z,9.70
2019-05-14T06:38:52.879Z,9.40
2019-05-14T06:40:45.711Z,9.40
2019-05-14T06:42:39.376Z,9.50
2019-05-14T06:44:32.320Z,9.50
2019-05-14T06:46:24.227Z,9.50
2019-05-14T06:48:29.918Z,9.50
2019-05-14T06:50:19.031Z,9.50
2019-05-14T06:52:13.540Z,9.60
2019-05-14T06:54:09.226Z,9.60
2019-05-14T06:56:01.904Z,9.50
2019-05-14T06:57:54.203Z,9.50
2019-05-14T06:59:48.423Z,9.60
2019-05-14T07:01:41.032Z,9.70
2019-05-14T07:03:33.444Z,9.70
2019-05-14T07:05:28.010Z,9.80
2019-05-14T07:07:20.742Z,10.00
2019-05-14T07:09:12.855Z,9.90
2019-05-14T07:11:05.218Z,9.90
2019-05-14T07:12:59.232Z,9.80
2019-05-14T07:14:51.238Z,9.80
2019-05-14T07:16:43.841Z,10.00
2019-05-14T07:18:48.552Z,10.10
2019-05-14T07:20:30.017Z,10.30
2019-05-14T07:22:22.510Z,10.40
2019-05-14T07:24:15.355Z,10.40
2019-05-14T07:26:08.495Z,10.50
2019-05-14T07:28:02.226Z,10.50
2019-05-14T07:29:54.441Z,10.40
2019-05-14T07:31:48.759Z,10.50
2019-05-14T07:33:40.625Z,10.50
2019-05-14T07:35:32.903Z,10.60
2019-05-14T07:37:25.435Z,10.70
2019-05-14T07:39:18.701Z,10.70
2019-05-14T07:41:11.145Z,10.80
2019-05-14T07:43:03.056Z,11.00
2019-05-14T07:44:58.720Z,11.10
2019-05-14T07:46:50.297Z,11.00
2019-05-14T07:48:42.975Z,10.90
2019-05-14T07:50:35.525Z,11.00
2019-05-14T07:52:28.457Z,11.10
2019-05-14T07:54:21.201Z,11.10
2019-05-14T07:56:13.702Z,11.10
2019-05-14T07:58:08.406Z,11.00
2019-05-14T08:00:00.764Z,11.00
2019-05-14T08:01:52.676Z,11.10
2019-05-14T08:03:44.789Z,11.20
2019-05-14T08:05:38.975Z,11.10
2019-05-14T08:07:31.318Z,11.00
2019-05-14T08:09:23.564Z,11.10
2019-05-14T08:11:16.199Z,11.10
2019-05-14T08:13:08.615Z,11.30
2019-05-14T08:15:14.400Z,11.50
2019-05-14T08:16:54.961Z,11.40
2019-05-14T08:18:48.717Z,11.10
2019-05-14T08:20:41.505Z,11.00
2019-05-14T08:22:34.408Z,11.00
2019-05-14T08:24:29.376Z,11.20
2019-05-14T08:26:20.862Z,11.30
2019-05-14T08:28:12.732Z,11.30
2019-05-14T08:30:07.853Z,11.30
2019-05-14T08:32:01.201Z,11.50
2019-05-14T08:33:53.712Z,11.30
2019-05-14T08:35:45.590Z,11.70
2019-05-14T08:37:38.712Z,11.90
2019-05-14T08:39:31.737Z,11.60
2019-05-14T08:41:24.422Z,11.60
2019-05-14T08:43:18.521Z,11.50
2019-05-14T08:45:13.840Z,11.90
2019-05-14T08:47:12.284Z,11.50
2019-05-14T08:49:03.618Z,11.20
2019-05-14T08:50:56.056Z,10.80
2019-05-14T08:52:48.503Z,10.70
2019-05-14T08:54:40.783Z,10.50
2019-05-14T08:56:33.505Z,10.40
2019-05-14T08:58:34.558Z,10.50
2019-05-14T09:00:28.658Z,10.30
2019-05-14T09:02:21.336Z,10.00
2019-05-14T09:04:13.934Z,9.50
2019-05-14T09:06:08.931Z,9.30
2019-05-14T09:08:00.747Z,9.10
2019-05-14T09:09:53.164Z,9.00
2019-05-14T09:11:46.680Z,9.10
2019-05-14T09:13:39.557Z,9.20
2019-05-14T09:15:32.096Z,9.20
2019-05-14T09:17:23.965Z,9.40
2019-05-14T09:19:16.299Z,9.70
2019-05-14T09:21:08.779Z,9.90
2019-05-14T09:23:01.663Z,10.30
2019-05-14T09:24:53.502Z,10.50
2019-05-14T09:26:45.778Z,10.40
2019-05-14T09:28:39.215Z,10.40
2019-05-14T09:30:32.595Z,10.80
2019-05-14T09:32:24.840Z,10.60
2019-05-14T09:34:19.569Z,11.00
2019-05-14T09:36:19.620Z,11.40
2019-05-14T09:38:08.539Z,11.10
2019-05-14T09:40:00.053Z,11.00
2019-05-14T09:41:52.591Z,11.00
2019-05-14T09:43:44.549Z,10.90
2019-05-14T09:45:38.807Z,11.10
2019-05-14T09:47:31.450Z,11.50
2019-05-14T09:49:23.725Z,11.30
2019-05-14T09:51:15.697Z,11.50
2019-05-14T09:53:09.885Z,11.70
2019-05-14T09:55:02.324Z,11.70
2019-05-14T09:56:54.769Z,11.70
2019-05-14T09:58:49.586Z,11.40
2019-05-14T10:00:41.244Z,11.50
2019-05-14T10:02:33.555Z,11.40
2019-05-14T10:04:25.941Z,11.50
2019-05-14T10:06:20.332Z,11.60
2019-05-14T10:08:12.224Z,11.40
2019-05-14T10:10:06.216Z,11.40
2019-05-14T10:11:58.690Z,11.40
2019-05-14T10:13:50.990Z,11.70
2019-05-14T10:15:43.289Z,12.20
2019-05-14T10:17:35.419Z,12.40
2019-05-14T10:19:29.542Z,12.20
2019-05-14T10:21:21.835Z,12.00
2019-05-14T10:23:15.339Z,12.10
2019-05-14T10:25:09.099Z,11.90
2019-05-14T10:27:01.652Z,12.00
2019-05-14T10:28:53.843Z,12.40
2019-05-14T10:30:48.940Z,12.40
2019-05-14T10:32:41.670Z,12.50
2019-05-14T10:34:34.698Z,12.50
2019-05-14T10:36:29.794Z,12.50
2019-05-14T10:38:20.802Z,12.60
2019-05-14T10:40:12.745Z,12.50
2019-05-14T10:42:05.185Z,12.80
2019-05-14T10:43:58.939Z,12.60
2019-05-14T10:45:51.764Z,12.60
2019-05-14T10:47:44.182Z,12.50
2019-05-14T10:49:38.670Z,12.10
2019-05-14T10:51:30.872Z,12.20
2019-05-14T10:53:23.263Z,12.10
2019-05-14T10:55:18.569Z,12.50
2019-05-14T10:57:11.334Z,12.40
2019-05-14T10:59:03.872Z,11.70
2019-05-14T11:00:58.660Z,12.00
2019-05-14T11:02:50.145Z,12.00
2019-05-14T11:04:42.738Z,12.10
2019-05-14T11:06:34.983Z,12.20
2019-05-14T11:08:29.633Z,12.40
2019-05-14T11:10:21.842Z,12.30
2019-05-14T11:12:14.085Z,12.10
2019-05-14T11:14:06.033Z,11.80
2019-05-14T11:15:59.535Z,12.00
2019-05-14T11:17:52.193Z,11.80
2019-05-14T11:19:44.465Z,11.80
2019-05-14T11:21:38.975Z,12.00
2019-05-14T11:23:30.643Z,12.20
2019-05-14T11:25:23.568Z,12.20
2019-05-14T11:27:18.480Z,12.30
2019-05-14T11:29:10.111Z,12.50
2019-05-14T11:31:02.499Z,12.80
2019-05-14T11:32:54.889Z,13.30
2019-05-14T11:34:47.616Z,12.90
2019-05-14T11:36:39.798Z,12.70
2019-05-14T11:38:37.263Z,12.80
2019-05-14T11:40:25.998Z,12.90
2019-05-14T11:42:19.837Z,13.50
2019-05-14T11:44:12.599Z,13.50
2019-05-14T11:46:05.359Z,13.20
2019-05-14T11:48:04.416Z,13.40
2019-05-14T11:50:03.891Z,13.50
2019-05-14T11:52:07.250Z,13.80
2019-05-14T11:53:54.417Z,13.80
2019-05-14T11:55:49.770Z,14.30
2019-05-14T11:57:41.623Z,15.00
2019-05-14T11:59:33.824Z,15.10
2019-05-14T12:01:25.895Z,15.40
2019-05-14T12:03:19.578Z,15.50
2019-05-14T12:05:12.555Z,16.10
2019-05-14T12:07:05.113Z,16.70
2019-05-14T12:08:58.233Z,16.40
2019-05-14T12:10:51.929Z,16.10
2019-05-14T12:12:44.502Z,15.30
2019-05-14T12:14:38.003Z,14.80
2019-05-14T12:16:31.600Z,13.90
2019-05-14T12:18:24.149Z,13.30
2019-05-14T12:20:25.072Z,13.30
2019-05-14T12:22:19.109Z,12.90
2019-05-14T12:24:13.607Z,13.30
2019-05-14T12:26:05.356Z,14.20
2019-05-14T12:27:58.955Z,14.50
2019-05-14T12:29:51.617Z,13.80
2019-05-14T12:31:43.873Z,13.40
2019-05-14T12:33:38.958Z,12.90
2019-05-14T12:35:30.214Z,13.10
2019-05-14T12:37:22.497Z,12.80
2019-05-14T12:39:14.811Z,12.70
2019-05-14T12:41:09.145Z,12.50
2019-05-14T12:43:00.916Z,12.00
2019-05-14T12:44:52.836Z,11.80
2019-05-14T12:46:45.321Z,11.60
2019-05-14T12:48:40.645Z,11.90
2019-05-14T12:50:33.142Z,12.90
2019-05-14T12:52:26.169Z,14.40
2019-05-14T12:54:19.894Z,16.40
2019-05-14T12:56:12.230Z,16.90
2019-05-14T12:58:04.612Z,16.90
2019-05-14T12:59:58.195Z,17.80
2019-05-14T13:01:50.953Z,18.20
2019-05-14T13:03:42.822Z,18.30
2019-05-14T13:05:35.309Z,19.20
2019-05-14T13:07:27.724Z,18.50
2019-05-14T13:09:21.659Z,17.60
2019-05-14T13:11:14.263Z,19.10
2019-05-14T13:13:08.457Z,18.10
2019-05-14T13:15:00.486Z,18.40
2019-05-14T13:16:54.709Z,18.50
2019-05-14T13:18:49.890Z,18.50
2019-05-14T13:20:40.588Z,19.70
2019-05-14T13:22:42.328Z,20.40
2019-05-14T13:24:28.871Z,19.70
2019-05-14T13:26:21.469Z,20.40
2019-05-14T13:28:14.089Z,22.10
2019-05-14T13:30:09.076Z,20.10
2019-05-14T13:32:01.144Z,18.90
2019-05-14T13:33:53.504Z,18.90
2019-05-14T13:35:48.204Z,19.60
2019-05-14T13:37:40.892Z,20.70
2019-05-14T13:39:33.089Z,21.00
2019-05-14T13:41:28.469Z,21.10
2019-05-14T13:43:21.303Z,20.40
2019-05-14T13:45:14.088Z,18.50
2019-05-14T13:47:09.083Z,17.10
2019-05-14T13:49:00.777Z,16.00
2019-05-14T13:50:57.416Z,15.00
2019-05-14T13:53:07.001Z,14.50
2019-05-14T13:54:46.573Z,14.30
2019-05-14T13:56:39.129Z,13.40
2019-05-14T13:58:31.906Z,12.90
2019-05-14T14:00:24.517Z,12.50
2019-05-14T14:02:18.910Z,11.90
2019-05-14T14:04:14.910Z,11.20
2019-05-14T14:06:05.436Z,10.80
2019-05-14T14:07:59.021Z,10.70
2019-05-14T14:09:52.951Z,10.60
2019-05-14T14:11:45.022Z,10.60
2019-05-14T14:13:39.212Z,10.70
2019-05-14T14:15:31.783Z,10.60
2019-05-14T14:17:24.085Z,11.00
2019-05-14T14:19:18.623Z,11.90
2019-05-14T14:21:10.984Z,13.00
2019-05-14T14:23:17.472Z,14.40
2019-05-14T14:24:59.107Z,16.40
2019-05-14T14:26:50.327Z,18.30
2019-05-14T14:28:42.965Z,18.70
2019-05-14T14:30:35.383Z,19.20
2019-05-14T14:32:28.101Z,19.70
2019-05-14T14:34:19.948Z,19.20
2019-05-14T14:36:12.330Z,17.80
2019-05-14T14:38:04.657Z,16.90
2019-05-14T14:39:59.299Z,15.80
2019-05-14T14:41:51.416Z,15.20
2019-05-14T14:43:44.577Z,14.80
2019-05-14T14:45:44.979Z,14.10
2019-05-14T14:47:33.124Z,13.40
2019-05-14T14:49:25.382Z,12.90
2019-05-14T14:51:19.236Z,12.70
2019-05-14T14:53:12.241Z,12.10
2019-05-14T14:55:05.236Z,11.90
2019-05-14T14:56:59.194Z,11.70
2019-05-14T14:58:51.793Z,11.30
2019-05-14T15:00:43.974Z,11.20
2019-05-14T15:02:36.521Z,11.00
2019-05-14T15:04:28.984Z,11.30
2019-05-14T15:06:21.529Z,11.50
2019-05-14T15:08:15.035Z,12.00
2019-05-14T15:10:08.689Z,12.40
2019-05-14T15:12:01.171Z,13.10
2019-05-14T15:13:53.692Z,13.30
2019-05-14T15:15:49.190Z,13.00
2019-05-14T15:17:40.290Z,12.80
2019-05-14T15:19:32.719Z,13.10
2019-05-14T15:21:25.105Z,14.40
2019-05-14T15:23:19.431Z,14.70
2019-05-14T15:25:11.541Z,14.30
2019-05-14T15:27:08.394Z,13.40
2019-05-14T15:28:58.441Z,12.30
2019-05-14T15:30:50.740Z,11.70
2019-05-14T15:32:43.451Z,10.80
2019-05-14T15:34:37.040Z,10.70
2019-05-14T15:36:29.334Z,10.60
2019-05-14T15:38:21.752Z,10.60
2019-05-14T15:40:14.506Z,10.70
2019-05-14T15:42:13.246Z,10.60
2019-05-14T15:44:00.636Z,10.70
2019-05-14T15:45:52.747Z,10.70
2019-05-14T15:47:45.198Z,10.80
2019-05-14T15:49:38.923Z,10.60
2019-05-14T15:51:31.857Z,10.50
2019-05-14T15:55:15.046Z,10.60
2019-05-14T15:57:09.110Z,10.40
2019-05-14T15:59:02.995Z,10.20
2019-05-14T16:01:00.803Z,10.30
2019-05-14T16:02:50.506Z,10.10
2019-05-14T16:04:43.283Z,9.90
2019-05-14T16:06:38.433Z,10.00
2019-05-14T16:08:29.964Z,9.80
2019-05-14T16:10:21.997Z,9.90
2019-05-14T16:12:15.740Z,9.60
2019-05-14T16:14:10.119Z,9.40
2019-05-14T16:16:02.107Z,9.20
2019-05-14T16:18:08.177Z,9.10
2019-05-14T16:19:48.702Z,9.00
2019-05-14T16:21:40.922Z,9.10
2019-05-14T16:23:33.629Z,9.30
2019-05-14T16:25:25.898Z,9.30
2019-05-14T16:27:19.765Z,9.10
2019-05-14T16:29:11.563Z,9.20
2019-05-14T16:31:04.201Z,9.20
2019-05-14T16:32:56.822Z,9.10
2019-05-14T16:34:49.177Z,9.00
2019-05-14T16:36:41.532Z,9.10
2019-05-14T16:38:34.393Z,9.10
2019-05-14T16:40:28.778Z,9.30
2019-05-14T16:42:21.256Z,9.30
2019-05-14T16:44:13.823Z,9.40
2019-05-14T16:46:09.237Z,9.30
2019-05-14T16:48:00.193Z,9.40
2019-05-14T16:49:53.081Z,9.50
2019-05-14T16:51:49.320Z,9.50
2019-05-14T16:53:40.486Z,9.40
2019-05-14T16:55:32.672Z,9.50
2019-05-14T16:57:24.926Z,9.40
2019-05-14T16:59:18.642Z,9.50
2019-05-14T17:01:12.456Z,9.50
2019-05-14T17:03:04.984Z,9.50
2019-05-14T17:04:59.030Z,9.50
2019-05-14T17:06:51.477Z,9.40
2019-05-14T17:08:43.914Z,9.50
2019-05-14T17:10:35.767Z,9.50
2019-05-14T17:12:30.837Z,9.50
2019-05-14T17:14:22.493Z,9.50
2019-05-14T17:16:15.029Z,9.60
2019-05-14T17:18:08.905Z,9.60
2019-05-14T17:20:01.428Z,9.50
2019-05-14T17:21:53.965Z,9.40
2019-05-14T17:23:48.770Z,9.40
2019-05-14T17:25:40.688Z,9.30
2019-05-14T17:27:33.517Z,9.30
2019-05-14T17:29:25.549Z,9.50
2019-05-14T17:31:19.010Z,9.40
2019-05-14T17:33:12.050Z,9.50
2019-05-14T17:35:08.364Z,9.70
2019-05-14T17:37:00.937Z,9.60
2019-05-14T17:38:53.626Z,9.70
2019-05-14T17:40:45.534Z,9.60
2019-05-14T17:42:39.525Z,9.40
2019-05-14T17:44:31.956Z,9.30
2019-05-14T17:46:24.212Z,9.20
2019-05-14T17:48:18.260Z,9.10
2019-05-14T17:50:10.420Z,8.90
2019-05-14T17:52:03.015Z,8.80
2019-05-14T17:53:55.661Z,8.70
2019-05-14T17:55:50.610Z,8.70
2019-05-14T17:57:46.695Z,8.60
2019-05-14T17:59:35.482Z,8.60
2019-05-14T18:01:28.950Z,8.60
2019-05-14T18:03:21.771Z,8.60
2019-05-14T18:05:14.480Z,8.40
2019-05-14T18:07:08.516Z,8.60
2019-05-14T18:09:01.513Z,8.60
2019-05-14T18:10:58.306Z,8.60
2019-05-14T18:12:48.966Z,8.60
2019-05-14T18:14:42.331Z,8.50
2019-05-14T18:16:35.312Z,8.60
2019-05-14T18:18:29.122Z,8.50
2019-05-14T18:20:21.949Z,8.50
2019-05-14T18:22:14.537Z,8.50
2019-05-14T18:24:07.229Z,8.50
2019-05-14T18:26:08.025Z,8.40
2019-05-14T18:27:54.223Z,8.40
2019-05-14T18:29:48.847Z,8.30
2019-05-14T18:31:44.594Z,8.20
2019-05-14T18:33:35.374Z,8.20
2019-05-14T18:35:29.495Z,8.20
2019-05-14T18:37:22.935Z,8.20
2019-05-14T18:39:18.290Z,8.20
2019-05-14T18:41:09.028Z,8.10
2019-05-14T18:43:02.962Z,8.00
2019-05-14T18:44:55.856Z,8.00
2019-05-14T18:46:48.857Z,8.00
2019-05-14T18:48:42.112Z,8.00
2019-05-14T18:50:35.943Z,8.00
2019-05-14T18:52:29.874Z,8.00
2019-05-14T18:54:23.726Z,8.00
2019-05-14T18:56:23.625Z,8.00
2019-05-14T18:58:11.860Z,8.00
2019-05-14T19:00:06.912Z,7.90
2019-05-14T19:02:00.699Z,7.90
2019-05-14T19:03:54.132Z,8.10
2019-05-14T19:05:48.242Z,8.00
2019-05-14T19:07:42.260Z,7.90
2019-05-14T19:09:35.822Z,7.80
2019-05-14T19:11:29.063Z,7.80
2019-05-14T19:13:22.885Z,7.80
2019-05-14T19:15:18.541Z,7.80
2019-05-14T19:17:12.156Z,7.70
2019-05-14T19:19:07.953Z,7.90
2019-05-14T19:21:00.923Z,7.90
2019-05-14T19:22:54.159Z,7.70
2019-05-14T19:24:49.253Z,7.70
2019-05-14T19:26:43.006Z,7.70
2019-05-14T19:28:38.819Z,7.80
2019-05-14T19:30:33.097Z,7.80
2019-05-14T19:32:28.316Z,7.80
2019-05-14T19:34:21.512Z,7.70
2019-05-14T19:36:18.599Z,7.70
2019-05-14T19:38:11.446Z,7.80
2019-05-14T19:40:06.080Z,7.60
2019-05-14T19:41:59.860Z,7.60
2019-05-14T19:43:53.533Z,7.50
2019-05-14T19:45:48.527Z,7.50
2019-05-14T19:47:42.074Z,7.50
2019-05-14T19:49:38.051Z,7.70
2019-05-14T19:51:30.621Z,7.60
2019-05-14T19:53:24.187Z,7.50
2019-05-14T19:55:18.878Z,7.40
2019-05-14T19:57:13.518Z,7.50
2019-05-14T19:59:09.086Z,7.50
2019-05-14T20:01:01.482Z,7.40
2019-05-14T20:02:58.041Z,7.30
2019-05-14T20:04:50.382Z,7.30
2019-05-14T20:06:44.251Z,7.30
2019-05-14T20:08:39.076Z,7.20
2019-05-14T20:10:32.775Z,7.20
2019-05-14T20:12:28.612Z,7.10
2019-05-14T20:14:21.167Z,7.40
2019-05-14T20:16:14.775Z,7.30
2019-05-14T20:18:09.580Z,7.30
2019-05-14T20:20:02.778Z,7.20
2019-05-14T20:21:58.639Z,7.20
2019-05-14T20:23:51.324Z,7.00
2019-05-14T20:25:45.095Z,7.00
2019-05-14T20:27:39.225Z,6.90
2019-05-14T20:29:32.899Z,7.10
2019-05-14T20:31:26.446Z,7.10
2019-05-14T20:33:19.756Z,6.90
2019-05-14T20:35:27.526Z,6.90
2019-05-14T20:37:08.496Z,7.00
2019-05-14T20:39:01.688Z,7.00
2019-05-14T20:40:57.976Z,6.90
2019-05-14T20:42:49.431Z,7.00
2019-05-14T20:44:41.839Z,7.00
2019-05-14T20:46:34.128Z,7.00
2019-05-14T20:48:28.156Z,7.00
2019-05-14T20:50:20.180Z,7.00
2019-05-14T20:52:12.306Z,6.90
2019-05-14T20:54:04.264Z,6.80
2019-05-14T20:55:58.840Z,6.80
2019-05-14T20:57:50.829Z,6.80
2019-05-14T20:59:42.890Z,6.80
2019-05-14T21:01:34.816Z,6.80
2019-05-14T21:03:29.064Z,6.80
2019-05-14T21:05:21.038Z,6.90
2019-05-14T21:07:13.598Z,7.00
2019-05-14T21:09:06.118Z,6.90
2019-05-14T21:10:58.850Z,6.80
2019-05-14T21:12:51.407Z,6.80
2019-05-14T21:14:44.004Z,6.80
2019-05-14T21:16:35.836Z,6.80
2019-05-14T21:18:35.200Z,6.90
2019-05-14T21:20:22.491Z,6.80
2019-05-14T21:22:14.649Z,6.80
2019-05-14T21:24:08.672Z,6.70
2019-05-14T21:26:00.583Z,6.80
2019-05-14T21:27:52.718Z,6.80
2019-05-14T21:29:45.189Z,6.90
2019-05-14T21:31:38.562Z,6.70
2019-05-14T21:33:31.900Z,6.70
2019-05-14T21:35:24.349Z,6.60
2019-05-14T21:37:18.733Z,6.70
2019-05-14T21:39:10.669Z,6.60
2019-05-14T21:41:03.316Z,6.60
2019-05-14T21:42:55.456Z,6.60
2019-05-14T21:44:48.377Z,6.60
2019-05-14T21:46:41.865Z,6.50
2019-05-14T21:48:34.522Z,6.50
2019-05-14T21:50:28.738Z,6.50
2019-05-14T21:52:20.576Z,6.50
2019-05-14T21:54:12.497Z,6.60
2019-05-14T21:56:04.996Z,6.50
2019-05-14T21:57:57.418Z,6.50
2019-05-14T21:59:50.316Z,6.40
2019-05-14T22:01:42.613Z,6.40
2019-05-14T22:03:34.912Z,6.40
2019-05-14T22:05:28.467Z,6.50
2019-05-14T22:07:21.255Z,6.60
2019-05-14T22:09:13.407Z,6.60
2019-05-14T22:11:06.009Z,6.60
2019-05-14T22:12:58.435Z,6.60
2019-05-14T22:14:51.107Z,6.60
2019-05-14T22:16:43.349Z,6.60
2019-05-14T22:18:35.366Z,6.70
2019-05-14T22:20:29.149Z,6.60
2019-05-14T22:22:21.540Z,6.60
2019-05-14T22:24:14.052Z,6.60
2019-05-14T22:26:06.622Z,6.60
2019-05-14T22:28:11.146Z,6.60
2019-05-14T22:29:52.660Z,6.70
2019-05-14T22:31:44.672Z,6.50
2019-05-14T22:33:38.154Z,6.70
2019-05-14T22:35:31.182Z,6.50
2019-05-14T22:37:24.228Z,6.50
2019-05-14T22:39:19.837Z,6.40
2019-05-14T22:41:11.511Z,6.50
2019-05-14T22:43:04.435Z,6.50
2019-05-14T22:44:58.318Z,6.50
2019-05-14T22:46:51.114Z,6.40
2019-05-14T22:48:43.347Z,6.50
2019-05-14T22:50:35.746Z,6.50
2019-05-14T22:52:31.125Z,6.40
2019-05-14T22:54:22.039Z,6.40
2019-05-14T22:56:14.631Z,6.50
2019-05-14T22:58:09.913Z,6.40
2019-05-14T23:00:00.809Z,6.40
2019-05-14T23:01:52.737Z,6.30
2019-05-14T23:03:44.832Z,6.50
2019-05-14T23:05:39.213Z,6.40
2019-05-14T23:07:30.876Z,6.40
2019-05-14T23:09:23.369Z,6.40
2019-05-14T23:11:15.760Z,6.40
2019-05-14T23:13:09.436Z,6.40
2019-05-14T23:15:02.192Z,6.40
2019-05-14T23:16:54.396Z,6.40
2019-05-14T23:18:48.669Z,6.30
2019-05-14T23:20:40.928Z,6.50
2019-05-14T23:22:33.039Z,6.50
2019-05-14T23:24:25.234Z,6.60
2019-05-14T23:26:19.254Z,6.40
2019-05-14T23:28:11.769Z,6.30
2019-05-14T23:30:04.920Z,6.30
2019-05-14T23:31:58.789Z,6.30
2019-05-14T23:33:51.221Z,6.40
2019-05-14T23:35:43.081Z,6.40
2019-05-14T23:37:35.149Z,6.50
2019-05-14T23:39:28.675Z,6.40
2019-05-14T23:41:22.440Z,6.40
2019-05-14T23:43:14.520Z,6.30
2019-05-14T23:45:08.187Z,6.30
2019-05-14T23:47:00.832Z,6.30
2019-05-14T23:48:53.186Z,6.20
2019-05-14T23:50:46.052Z,6.20
2019-05-14T23:52:38.827Z,6.30
2019-05-14T23:54:31.414Z,6.20
2019-05-14T23:56:23.610Z,6.30
2019-05-14T23:58:15.576Z,6.30
